createdAt,value
2023-04-22T00:02:08.630Z,61.85
2023-04-22T00:04:37.460Z,61.22
2023-04-22T00:07:04.707Z,60.89
2023-04-22T00:09:31.775Z,60.95
2023-04-22T00:11:59.074Z,61.33
2023-04-22T00:14:26.023Z,61.64
2023-04-22T00:16:53.086Z,62.14
2023-04-22T00:19:20.099Z,62.43
2023-04-22T00:21:47.035Z,62.86
2023-04-22T00:24:13.967Z,63.00
2023-04-22T00:26:41.081Z,63.68
2023-04-22T00:29:08.096Z,64.06
2023-04-22T00:31:35.086Z,64.33
2023-04-22T00:34:02.182Z,64.44
2023-04-22T00:36:29.171Z,64.48
2023-04-22T00:38:56.288Z,64.16
2023-04-22T00:41:23.464Z,63.72
2023-04-22T00:43:50.583Z,63.70
2023-04-22T00:46:17.611Z,63.49
2023-04-22T00:48:45.235Z,63.39
2023-04-22T00:51:12.288Z,63.57
2023-04-22T00:53:39.330Z,64.14
2023-04-22T00:56:06.577Z,64.71
2023-04-22T00:58:33.917Z,64.92
2023-04-22T01:01:01.294Z,64.40
2023-04-22T01:03:30.770Z,64.74
2023-04-22T01:05:58.444Z,64.70
2023-04-22T01:08:28.558Z,64.50
2023-04-22T01:10:56.900Z,64.63
2023-04-22T01:13:24.244Z,64.67
2023-04-22T01:15:51.840Z,64.80
2023-04-22T01:18:18.818Z,64.90
2023-04-22T01:20:45.977Z,65.27
2023-04-22T01:23:31.039Z,65.40
2023-04-22T01:25:58.091Z,65.47
2023-04-22T01:28:26.059Z,65.47
2023-04-22T01:30:54.365Z,65.48
2023-04-22T01:33:21.443Z,65.33
2023-04-22T01:35:48.672Z,65.54
2023-04-22T01:38:15.675Z,65.83
2023-04-22T01:40:42.770Z,65.87
2023-04-22T01:43:09.860Z,66.11
2023-04-22T01:45:36.951Z,66.17
2023-04-22T01:48:04.808Z,66.35
2023-04-22T01:50:31.918Z,66.53
2023-04-22T01:52:58.991Z,66.49
2023-04-22T01:55:26.079Z,66.63
2023-04-22T01:57:53.250Z,66.71
2023-04-22T02:00:20.250Z,67.15
2023-04-22T02:02:48.912Z,67.03
2023-04-22T02:05:16.307Z,67.29
2023-04-22T02:07:46.120Z,67.60
2023-04-22T02:10:16.564Z,67.77
2023-04-22T02:12:44.058Z,67.95
2023-04-22T02:15:11.782Z,68.27
2023-04-22T02:17:39.317Z,67.96
2023-04-22T02:20:07.022Z,67.89
2023-04-22T02:22:35.712Z,68.20
2023-04-22T02:25:03.497Z,68.20
2023-04-22T02:27:33.371Z,68.22
2023-04-22T02:30:00.317Z,68.10
2023-04-22T02:32:27.621Z,68.54
2023-04-22T02:34:54.536Z,68.23
2023-04-22T02:37:23.032Z,68.16
2023-04-22T02:39:50.171Z,68.12
2023-04-22T02:42:17.671Z,68.35
2023-04-22T02:44:44.624Z,68.17
2023-04-22T02:47:12.497Z,68.12
2023-04-22T02:49:40.870Z,68.14
2023-04-22T02:52:09.857Z,68.29
2023-04-22T02:54:36.986Z,68.32
2023-04-22T02:57:04.103Z,68.18
2023-04-22T02:59:31.523Z,68.10
2023-04-22T03:01:59.229Z,68.08
2023-04-22T03:04:49.369Z,67.95
2023-04-22T03:07:16.413Z,67.88
2023-04-22T03:09:43.436Z,68.23
2023-04-22T03:12:10.649Z,68.04
2023-04-22T03:14:37.819Z,68.12
2023-04-22T03:17:06.196Z,68.09
2023-04-22T03:19:33.452Z,68.26
2023-04-22T03:22:00.429Z,68.03
2023-04-22T03:24:27.453Z,67.65
2023-04-22T03:26:54.527Z,67.52
2023-04-22T03:29:21.688Z,67.05
2023-04-22T03:31:48.894Z,66.96
2023-04-22T03:34:16.520Z,66.75
2023-04-22T03:36:45.801Z,67.17
2023-04-22T03:39:13.318Z,66.83
2023-04-22T03:41:41.840Z,66.77
2023-04-22T03:44:09.083Z,66.52
2023-04-22T03:46:36.727Z,65.92
2023-04-22T03:49:24.274Z,65.78
2023-04-22T03:51:51.211Z,65.30
2023-04-22T03:54:22.647Z,65.12
2023-04-22T03:56:52.156Z,64.29
2023-04-22T03:59:21.496Z,64.21
2023-04-22T04:01:50.758Z,64.03
2023-04-22T04:04:20.692Z,63.55
2023-04-22T04:06:52.813Z,63.10
2023-04-22T04:09:20.232Z,62.49
2023-04-22T04:11:47.321Z,61.95
2023-04-22T04:14:14.696Z,61.36
2023-04-22T04:16:45.589Z,60.76
2023-04-22T04:19:18.841Z,59.92
2023-04-22T04:21:46.079Z,59.24
2023-04-22T04:24:13.087Z,57.95
2023-04-22T04:26:45.350Z,57.53
2023-04-22T04:29:20.513Z,56.22
2023-04-22T04:31:57.698Z,55.61
2023-04-22T04:34:27.256Z,55.08
2023-04-22T04:36:56.192Z,54.26
2023-04-22T04:39:30.810Z,53.84
2023-04-22T04:42:01.412Z,53.00
2023-04-22T04:44:33.933Z,53.06
2023-04-22T04:47:04.317Z,52.35
2023-04-22T04:49:32.028Z,51.53
2023-04-22T04:52:01.867Z,50.85
2023-04-22T04:54:30.105Z,50.74
2023-04-22T04:56:59.528Z,50.02
2023-04-22T04:59:26.739Z,49.71
2023-04-22T05:01:54.597Z,49.33
2023-04-22T05:04:22.295Z,49.07
2023-04-22T05:06:49.439Z,48.59
2023-04-22T05:09:17.070Z,48.15
2023-04-22T05:11:46.682Z,47.46
2023-04-22T05:14:19.582Z,46.65
2023-04-22T05:16:47.727Z,46.73
2023-04-22T05:19:15.310Z,46.38
2023-04-22T05:21:43.298Z,45.59
2023-04-22T05:24:10.437Z,45.38
2023-04-22T05:26:37.405Z,44.22
2023-04-22T05:29:10.539Z,44.47
2023-04-22T05:31:37.807Z,43.63
2023-04-22T05:34:04.905Z,43.45
2023-04-22T05:36:32.210Z,42.63
2023-04-22T05:39:00.100Z,42.42
2023-04-22T05:41:28.119Z,42.12
2023-04-22T05:43:56.902Z,41.56
2023-04-22T05:46:24.727Z,40.67
2023-04-22T05:48:52.128Z,40.89
2023-04-22T05:51:51.550Z,40.89
2023-04-22T05:54:21.987Z,40.29
2023-04-22T05:56:49.082Z,39.92
2023-04-22T05:59:16.889Z,39.79
2023-04-22T06:01:45.378Z,39.22
2023-04-22T06:04:16.377Z,38.32
2023-04-22T06:06:44.431Z,38.44
2023-04-22T06:09:14.227Z,38.29
2023-04-22T06:11:42.549Z,37.45
2023-04-22T06:14:09.682Z,37.99
2023-04-22T06:16:36.891Z,37.59
2023-04-22T06:19:06.543Z,37.43
2023-04-22T06:21:34.028Z,38.11
2023-04-22T06:24:01.488Z,37.37
2023-04-22T06:26:28.710Z,36.79
2023-04-22T06:28:56.293Z,36.51
2023-04-22T06:31:24.224Z,36.08
2023-04-22T06:33:51.310Z,36.52
2023-04-22T06:36:19.400Z,35.80
2023-04-22T06:38:52.786Z,35.62
2023-04-22T06:41:40.830Z,35.77
2023-04-22T06:44:20.629Z,35.56
2023-04-22T06:47:05.244Z,35.19
2023-04-22T06:49:39.431Z,34.12
2023-04-22T06:52:39.181Z,33.38
2023-04-22T06:55:06.836Z,33.31
2023-04-22T06:57:33.855Z,33.17
2023-04-22T07:00:05.578Z,32.93
2023-04-22T07:02:35.317Z,32.43
2023-04-22T07:05:03.162Z,32.24
2023-04-22T07:07:30.852Z,33.19
2023-04-22T07:09:57.917Z,33.03
2023-04-22T07:12:30.598Z,33.02
2023-04-22T07:14:57.623Z,33.68
2023-04-22T07:17:24.659Z,32.49
2023-04-22T07:19:51.782Z,33.18
2023-04-22T07:22:18.869Z,32.45
2023-04-22T07:24:45.950Z,31.32
2023-04-22T07:27:13.037Z,32.01
2023-04-22T07:29:40.440Z,31.87
2023-04-22T07:32:07.641Z,32.41
2023-04-22T07:34:35.042Z,32.32
2023-04-22T07:37:02.187Z,31.66
2023-04-22T07:39:29.215Z,31.85
2023-04-22T07:41:57.862Z,32.22
2023-04-22T07:44:25.033Z,31.26
2023-04-22T07:46:52.268Z,31.03
2023-04-22T07:49:19.917Z,31.10
2023-04-22T07:51:47.045Z,30.09
2023-04-22T07:54:14.097Z,30.94
2023-04-22T07:56:41.206Z,30.88
2023-04-22T07:59:08.441Z,30.51
2023-04-22T08:01:35.558Z,30.24
2023-04-22T08:04:03.272Z,29.40
2023-04-22T08:06:30.862Z,30.79
2023-04-22T08:08:57.903Z,30.45
2023-04-22T08:11:24.900Z,28.84
2023-04-22T08:13:51.944Z,29.90
2023-04-22T08:16:19.231Z,28.91
2023-04-22T08:18:46.308Z,29.27
2023-04-22T08:21:13.516Z,28.99
2023-04-22T08:23:40.575Z,28.84
2023-04-22T08:26:08.409Z,29.75
2023-04-22T08:28:35.617Z,29.33
2023-04-22T08:31:02.797Z,29.78
2023-04-22T08:33:29.901Z,29.80
2023-04-22T08:35:57.032Z,30.29
2023-04-22T08:38:23.960Z,30.51
2023-04-22T08:40:50.972Z,30.82
2023-04-22T08:43:17.883Z,30.90
2023-04-22T08:45:44.912Z,29.99
2023-04-22T08:48:16.419Z,30.30
2023-04-22T08:50:43.444Z,30.77
2023-04-22T08:53:10.400Z,30.59
2023-04-22T08:55:37.556Z,31.14
2023-04-22T08:58:06.208Z,32.21
2023-04-22T09:00:34.510Z,31.68
2023-04-22T09:03:05.470Z,31.25
2023-04-22T09:05:37.130Z,31.25
2023-04-22T09:08:04.241Z,30.76
2023-04-22T09:10:33.550Z,30.14
2023-04-22T09:13:01.336Z,29.75
2023-04-22T09:15:29.047Z,30.68
2023-04-22T09:17:56.855Z,30.71
2023-04-22T09:20:27.744Z,31.75
2023-04-22T09:22:55.114Z,30.95
2023-04-22T09:25:26.253Z,30.76
2023-04-22T09:27:54.538Z,30.52
2023-04-22T09:30:25.855Z,31.41
2023-04-22T09:33:01.029Z,30.41
2023-04-22T09:35:29.252Z,31.03
2023-04-22T09:37:56.926Z,30.51
2023-04-22T09:40:24.051Z,31.35
2023-04-22T09:42:55.358Z,31.41
2023-04-22T09:45:35.043Z,29.81
2023-04-22T09:48:06.496Z,30.11
2023-04-22T09:50:33.560Z,30.68
2023-04-22T09:53:01.940Z,29.69
2023-04-22T09:55:29.941Z,29.77
2023-04-22T09:57:57.754Z,29.97
2023-04-22T10:00:27.266Z,29.86
2023-04-22T10:02:54.377Z,29.41
2023-04-22T10:05:21.821Z,29.89
2023-04-22T10:07:48.967Z,29.80
2023-04-22T10:10:16.062Z,28.97
2023-04-22T10:12:42.984Z,28.67
2023-04-22T10:15:10.177Z,28.56
2023-04-22T10:17:38.422Z,29.07
2023-04-22T10:20:13.683Z,29.16
2023-04-22T10:22:41.988Z,29.14
2023-04-22T10:25:13.430Z,29.61
2023-04-22T10:27:40.691Z,29.52
2023-04-22T10:30:09.409Z,27.76
2023-04-22T10:32:36.532Z,28.14
2023-04-22T10:35:08.078Z,28.54
2023-04-22T10:37:35.235Z,28.66
2023-04-22T10:40:16.608Z,29.16
2023-04-22T10:42:49.430Z,29.36
2023-04-22T10:45:16.736Z,29.68
2023-04-22T10:47:44.122Z,30.06
2023-04-22T10:50:29.722Z,29.92
2023-04-22T10:53:03.346Z,30.50
2023-04-22T10:55:51.021Z,29.94
2023-04-22T10:58:22.379Z,30.07
2023-04-22T11:00:54.518Z,29.53
2023-04-22T11:03:27.001Z,30.20
2023-04-22T11:06:13.555Z,28.86
2023-04-22T11:08:44.701Z,28.46
2023-04-22T11:11:13.701Z,29.12
2023-04-22T11:13:44.125Z,29.29
2023-04-22T11:16:11.714Z,29.32
2023-04-22T11:18:38.897Z,30.08
2023-04-22T11:21:06.685Z,30.08
2023-04-22T11:23:33.587Z,30.30
2023-04-22T11:26:02.177Z,29.43
2023-04-22T11:28:29.330Z,29.97
2023-04-22T11:31:04.063Z,30.09
2023-04-22T11:33:32.892Z,30.50
2023-04-22T11:35:59.845Z,30.53
2023-04-22T11:38:26.820Z,30.65
2023-04-22T11:40:55.219Z,31.24
2023-04-22T11:43:22.206Z,31.50
2023-04-22T11:45:49.154Z,30.91
2023-04-22T11:48:16.834Z,30.48
2023-04-22T11:50:44.839Z,30.91
2023-04-22T11:53:16.500Z,30.04
2023-04-22T11:55:44.748Z,29.88
2023-04-22T11:58:13.434Z,31.35
2023-04-22T12:00:47.407Z,32.09
2023-04-22T12:03:22.132Z,31.67
2023-04-22T12:05:57.480Z,31.79
2023-04-22T12:08:26.692Z,32.18
2023-04-22T12:10:58.093Z,31.75
2023-04-22T12:13:33.040Z,31.94
2023-04-22T12:16:01.309Z,31.11
2023-04-22T12:18:32.760Z,32.17
2023-04-22T12:21:01.437Z,32.45
2023-04-22T12:23:28.637Z,32.29
2023-04-22T12:25:55.750Z,32.33
2023-04-22T12:28:22.801Z,31.97
2023-04-22T12:30:49.686Z,31.55
2023-04-22T12:33:16.725Z,31.06
2023-04-22T12:35:48.855Z,31.59
2023-04-22T12:38:16.143Z,31.24
2023-04-22T12:40:45.127Z,31.26
2023-04-22T12:43:12.361Z,31.52
2023-04-22T12:45:39.478Z,32.07
2023-04-22T12:48:09.531Z,31.65
2023-04-22T12:50:39.369Z,31.65
2023-04-22T12:53:09.563Z,31.05
2023-04-22T12:55:36.536Z,31.27
2023-04-22T12:58:04.294Z,31.10
2023-04-22T13:00:31.270Z,30.87
2023-04-22T13:02:58.446Z,30.73
2023-04-22T13:05:30.380Z,30.64
2023-04-22T13:08:06.675Z,30.24
2023-04-22T13:10:37.542Z,31.78
2023-04-22T13:13:16.780Z,31.41
2023-04-22T13:18:43.672Z,31.10
2023-04-22T13:21:14.887Z,30.76
2023-04-22T13:23:46.523Z,31.10
2023-04-22T13:26:22.548Z,30.46
2023-04-22T13:28:49.676Z,31.11
2023-04-22T13:31:16.923Z,31.50
2023-04-22T13:33:44.354Z,30.84
2023-04-22T13:36:11.391Z,30.86
2023-04-22T13:38:38.550Z,31.03
2023-04-22T13:41:05.506Z,31.19
2023-04-22T13:43:32.578Z,31.59
2023-04-22T13:45:59.835Z,31.97
2023-04-22T13:48:27.659Z,31.08
2023-04-22T13:50:54.968Z,30.85
2023-04-22T13:53:21.857Z,30.87
2023-04-22T13:55:48.788Z,31.18
2023-04-22T13:58:15.742Z,31.64
2023-04-22T14:00:42.780Z,32.18
2023-04-22T14:03:09.916Z,32.50
2023-04-22T14:05:37.060Z,32.58
2023-04-22T14:08:04.232Z,32.87
2023-04-22T14:10:31.243Z,32.96
2023-04-22T14:12:58.217Z,33.60
2023-04-22T14:15:25.284Z,33.71
2023-04-22T14:17:52.754Z,34.00
2023-04-22T14:20:19.734Z,34.71
2023-04-22T14:22:46.806Z,34.51
2023-04-22T14:25:13.816Z,33.98
2023-04-22T14:27:40.753Z,34.52
2023-04-22T14:30:08.659Z,34.59
2023-04-22T14:32:35.907Z,34.73
2023-04-22T14:35:02.950Z,34.77
2023-04-22T14:37:32.161Z,34.74
2023-04-22T14:39:59.210Z,35.05
2023-04-22T14:42:26.403Z,34.60
2023-04-22T14:44:53.477Z,34.38
2023-04-22T14:47:20.518Z,34.86
2023-04-22T14:49:47.519Z,35.25
2023-04-22T14:52:14.588Z,34.95
2023-04-22T14:54:41.571Z,34.70
2023-04-22T14:57:08.559Z,35.06
2023-04-22T14:59:35.611Z,35.12
2023-04-22T15:02:02.834Z,35.33
2023-04-22T15:04:29.997Z,35.36
2023-04-22T15:07:00.164Z,35.67
2023-04-22T15:09:27.986Z,35.75
2023-04-22T15:11:56.504Z,36.06
2023-04-22T15:14:23.674Z,36.44
2023-04-22T15:16:50.735Z,36.11
2023-04-22T15:19:17.864Z,36.10
2023-04-22T15:21:44.848Z,36.10
2023-04-22T15:24:11.793Z,36.17
2023-04-22T15:26:40.733Z,36.55
2023-04-22T15:29:07.884Z,36.75
2023-04-22T15:31:34.941Z,36.52
2023-04-22T15:34:01.946Z,36.88
2023-04-22T15:36:29.714Z,37.12
2023-04-22T15:38:56.765Z,37.69
2023-04-22T15:41:24.225Z,38.07
2023-04-22T15:43:52.013Z,37.98
2023-04-22T15:46:19.767Z,38.42
2023-04-22T15:48:48.523Z,38.43
2023-04-22T15:51:16.171Z,38.61
2023-04-22T15:53:45.376Z,38.78
2023-04-22T15:56:12.790Z,38.83
2023-04-22T15:58:39.904Z,39.00
2023-04-22T16:01:18.149Z,39.27
2023-04-22T16:03:50.242Z,39.16
2023-04-22T16:06:18.146Z,39.38
2023-04-22T16:08:45.732Z,39.76
2023-04-22T16:11:14.073Z,39.99
2023-04-22T16:13:41.231Z,39.99
2023-04-22T16:16:08.619Z,40.36
2023-04-22T16:18:35.832Z,40.09
2023-04-22T16:21:03.784Z,40.01
2023-04-22T16:23:31.816Z,40.42
2023-04-22T16:25:58.725Z,40.37
2023-04-22T16:28:25.764Z,40.99
2023-04-22T16:30:52.772Z,41.04
2023-04-22T16:33:19.823Z,41.67
2023-04-22T16:35:46.884Z,41.35
2023-04-22T16:38:13.890Z,42.42
2023-04-22T16:40:41.075Z,43.71
2023-04-22T16:43:09.360Z,43.63
2023-04-22T16:45:36.520Z,43.24
2023-04-22T16:48:03.681Z,43.21
2023-04-22T16:50:30.694Z,44.47
2023-04-22T16:52:57.840Z,45.78
2023-04-22T16:55:24.830Z,46.52
2023-04-22T16:57:51.825Z,46.65
2023-04-22T17:00:18.910Z,46.74
2023-04-22T17:02:46.098Z,47.40
2023-04-22T17:05:13.363Z,47.53
2023-04-22T17:07:40.618Z,48.39
2023-04-22T17:10:27.659Z,48.96
2023-04-22T17:12:54.643Z,49.61
2023-04-22T17:15:21.901Z,50.11
2023-04-22T17:17:48.835Z,50.91
2023-04-22T17:20:16.003Z,51.60
2023-04-22T17:22:43.227Z,51.58
2023-04-22T17:25:10.465Z,51.19
2023-04-22T17:27:37.536Z,51.14
2023-04-22T17:30:04.989Z,51.33
2023-04-22T17:32:32.558Z,51.61
2023-04-22T17:35:00.025Z,52.36
2023-04-22T17:37:27.146Z,52.60
2023-04-22T17:39:56.330Z,53.14
2023-04-22T17:42:27.252Z,53.55
2023-04-22T17:44:59.630Z,53.70
2023-04-22T17:47:26.678Z,53.84
2023-04-22T17:49:53.863Z,53.88
2023-04-22T17:52:21.209Z,54.27
2023-04-22T17:54:48.232Z,54.52
2023-04-22T17:57:16.130Z,54.90
2023-04-22T17:59:43.315Z,54.68
2023-04-22T18:02:13.238Z,54.83
2023-04-22T18:04:40.608Z,54.78
2023-04-22T18:07:07.691Z,55.03
2023-04-22T18:09:34.764Z,55.95
2023-04-22T18:12:01.823Z,55.91
2023-04-22T18:14:28.993Z,55.97
2023-04-22T18:16:56.065Z,55.67
2023-04-22T18:19:23.202Z,55.71
2023-04-22T18:21:59.514Z,56.37
2023-04-22T18:24:28.049Z,56.52
2023-04-22T18:26:54.965Z,56.24
2023-04-22T18:29:22.036Z,56.57
2023-04-22T18:31:49.146Z,56.06
2023-04-22T18:34:16.108Z,56.42
2023-04-22T18:36:43.140Z,57.12
2023-04-22T18:39:10.814Z,57.13
2023-04-22T18:41:39.511Z,57.92
2023-04-22T18:44:06.727Z,59.02
2023-04-22T18:46:33.738Z,58.77
2023-04-22T18:49:00.886Z,58.60
2023-04-22T18:51:28.054Z,59.00
2023-04-22T18:53:55.062Z,58.96
2023-04-22T18:56:22.091Z,59.21
2023-04-22T18:58:50.062Z,59.45
2023-04-22T19:01:17.449Z,59.46
2023-04-22T19:03:45.836Z,59.45
2023-04-22T19:06:13.182Z,59.51
2023-04-22T19:08:40.255Z,59.45
2023-04-22T19:11:07.254Z,60.25
2023-04-22T19:13:34.395Z,60.21
2023-04-22T19:16:01.405Z,59.88
2023-04-22T19:18:28.495Z,59.87
2023-04-22T19:20:55.627Z,58.86
2023-04-22T19:23:22.585Z,59.26
2023-04-22T19:25:49.862Z,58.98
2023-04-22T19:28:16.798Z,59.08
2023-04-22T19:30:43.832Z,59.46
2023-04-22T19:33:10.831Z,59.74
2023-04-22T19:35:37.880Z,59.98
2023-04-22T19:38:04.934Z,60.81
2023-04-22T19:40:31.968Z,61.54
2023-04-22T19:42:59.144Z,60.52
2023-04-22T19:45:26.880Z,60.69
2023-04-22T19:47:54.144Z,60.70
2023-04-22T19:50:21.332Z,60.32
2023-04-22T19:52:48.404Z,60.62
2023-04-22T19:55:15.384Z,61.12
2023-04-22T19:57:43.371Z,61.48
2023-04-22T20:00:11.298Z,61.30
2023-04-22T20:02:42.175Z,61.42
2023-04-22T20:05:10.345Z,61.41
2023-04-22T20:07:38.363Z,61.63
2023-04-22T20:10:06.778Z,61.90
2023-04-22T20:12:34.326Z,62.10
2023-04-22T20:15:01.343Z,62.02
2023-04-22T20:17:35.772Z,61.56
2023-04-22T20:20:06.904Z,62.18
2023-04-22T20:22:34.353Z,62.43
2023-04-22T20:25:05.444Z,62.41
2023-04-22T20:27:34.629Z,62.68
2023-04-22T20:30:01.754Z,62.64
2023-04-22T20:32:32.150Z,63.65
2023-04-22T20:34:59.384Z,63.14
2023-04-22T20:37:28.594Z,64.07
2023-04-22T20:39:55.930Z,64.24
2023-04-22T20:42:23.088Z,64.48
2023-04-22T20:44:50.251Z,64.33
2023-04-22T20:47:17.279Z,64.66
2023-04-22T20:49:44.801Z,64.84
2023-04-22T20:52:12.250Z,65.40
2023-04-22T20:54:39.511Z,65.15
2023-04-22T20:57:07.308Z,64.96
2023-04-22T20:59:34.730Z,64.72
2023-04-22T21:02:02.193Z,65.17
2023-04-22T21:04:29.392Z,65.20
2023-04-22T21:06:57.382Z,64.64
2023-04-22T21:09:27.401Z,63.54
2023-04-22T21:11:54.792Z,63.08
2023-04-22T21:14:26.541Z,62.50
2023-04-22T21:16:56.445Z,63.00
2023-04-22T21:19:23.499Z,64.31
2023-04-22T21:21:50.532Z,64.95
2023-04-22T21:24:17.513Z,65.68
2023-04-22T21:26:44.629Z,66.36
2023-04-22T21:29:12.019Z,66.93
2023-04-22T21:31:38.926Z,67.51
2023-04-22T21:34:08.657Z,68.23
2023-04-22T21:36:35.815Z,68.56
2023-04-22T21:39:04.604Z,68.17
2023-04-22T21:41:31.895Z,68.03
2023-04-22T21:43:58.964Z,67.87
2023-04-22T21:46:26.200Z,67.73
2023-04-22T21:48:53.790Z,67.41
2023-04-22T21:51:20.933Z,67.13
2023-04-22T21:53:47.868Z,66.95
2023-04-22T21:56:14.827Z,67.53
2023-04-22T21:58:42.033Z,67.30
2023-04-22T22:01:09.126Z,66.88
2023-04-22T22:03:36.786Z,67.00
2023-04-22T22:06:04.464Z,67.82
2023-04-22T22:08:31.661Z,68.70
2023-04-22T22:10:59.532Z,69.27
2023-04-22T22:13:26.711Z,69.20
2023-04-22T22:15:56.036Z,69.39
2023-04-22T22:18:23.123Z,69.47
2023-04-22T22:20:50.035Z,69.77
2023-04-22T22:23:18.806Z,69.76
2023-04-22T22:25:45.721Z,69.53
2023-04-22T22:28:12.704Z,69.81
2023-04-22T22:30:39.737Z,69.86
2023-04-22T22:33:06.824Z,69.95
2023-04-22T22:35:33.802Z,70.04
2023-04-22T22:38:01.073Z,70.53
2023-04-22T22:40:28.311Z,71.22
2023-04-22T22:42:55.428Z,71.89
2023-04-22T22:45:22.369Z,72.38
2023-04-22T22:47:49.857Z,71.64
2023-04-22T22:50:16.817Z,71.61
2023-04-22T22:52:43.918Z,72.31
2023-04-22T22:55:11.388Z,72.01
2023-04-22T22:57:38.555Z,72.18
2023-04-22T23:00:06.971Z,71.44
2023-04-22T23:02:34.286Z,71.52
2023-04-22T23:05:01.398Z,71.05
2023-04-22T23:07:28.693Z,70.95
2023-04-22T23:09:55.725Z,71.23
2023-04-22T23:12:22.660Z,71.74
2023-04-22T23:14:49.605Z,71.55
2023-04-22T23:17:17.296Z,70.59
2023-04-22T23:19:44.684Z,70.74
2023-04-22T23:22:12.560Z,70.54
2023-04-22T23:24:40.222Z,70.26
2023-04-22T23:27:07.539Z,69.26
2023-04-22T23:29:36.686Z,69.66
2023-04-22T23:32:05.549Z,69.97
2023-04-22T23:34:34.372Z,70.22
2023-04-22T23:37:05.684Z,70.21
2023-04-22T23:39:32.870Z,70.53
2023-04-22T23:41:59.811Z,70.95
2023-04-22T23:44:26.829Z,71.12
2023-04-22T23:46:53.809Z,71.46
2023-04-22T23:49:21.160Z,71.83
2023-04-22T23:51:48.278Z,71.86
2023-04-22T23:54:17.479Z,71.93
2023-04-22T23:56:44.771Z,71.86
2023-04-22T23:59:12.023Z,71.83
